sensor_id;sensor_type;location;lat;lon;timestamp;P1;durP1;ratioP1;P2;durP2;ratioP2
55758;SDS011;41678;52.126;20.664;2022-12-01T00:03:01;14.80;;;6.75;;
55758;SDS011;41678;52.126;20.664;2022-12-01T00:08:21;15.00;;;6.18;;
55758;SDS011;41678;52.126;20.664;2022-12-01T00:13:41;22.00;;;6.80;;
55758;SDS011;41678;52.126;20.664;2022-12-01T00:19:00;13.30;;;5.72;;
55758;SDS011;41678;52.126;20.664;2022-12-01T00:24:20;14.32;;;6.03;;
55758;SDS011;41678;52.126;20.664;2022-12-01T00:29:41;12.18;;;5.82;;
55758;SDS011;41678;52.126;20.664;2022-12-01T00:35:03;17.75;;;6.65;;
55758;SDS011;41678;52.126;20.664;2022-12-01T00:40:23;13.70;;;6.78;;
55758;SDS011;41678;52.126;20.664;2022-12-01T00:45:43;13.77;;;5.25;;
55758;SDS011;41678;52.126;20.664;2022-12-01T00:51:02;15.18;;;5.82;;
55758;SDS011;41678;52.126;20.664;2022-12-01T00:56:22;15.13;;;7.13;;
55758;SDS011;41678;52.126;20.664;2022-12-01T01:01:42;15.13;;;6.93;;
55758;SDS011;41678;52.126;20.664;2022-12-01T01:07:01;13.30;;;5.45;;
55758;SDS011;41678;52.126;20.664;2022-12-01T01:12:22;17.95;;;7.18;;
55758;SDS011;41678;52.126;20.664;2022-12-01T01:17:41;22.20;;;9.90;;
55758;SDS011;41678;52.126;20.664;2022-12-01T01:23:01;17.52;;;7.90;;
55758;SDS011;41678;52.126;20.664;2022-12-01T01:28:21;17.92;;;7.35;;
55758;SDS011;41678;52.126;20.664;2022-12-01T01:33:40;12.88;;;6.45;;
55758;SDS011;41678;52.126;20.664;2022-12-01T01:39:01;22.70;;;8.55;;
55758;SDS011;41678;52.126;20.664;2022-12-01T01:50:10;22.58;;;8.65;;
55758;SDS011;41678;52.126;20.664;2022-12-01T01:55:34;16.98;;;8.32;;
55758;SDS011;41678;52.126;20.664;2022-12-01T02:00:54;21.42;;;8.73;;
55758;SDS011;41678;52.126;20.664;2022-12-01T02:06:14;18.10;;;8.23;;
55758;SDS011;41678;52.126;20.664;2022-12-01T02:39:50;19.90;;;9.80;;
55758;SDS011;41678;52.126;20.664;2022-12-01T02:45:47;16.20;;;9.20;;
55758;SDS011;41678;52.126;20.664;2022-12-01T02:51:20;22.85;;;9.40;;
55758;SDS011;41678;52.126;20.664;2022-12-01T02:56:43;22.00;;;9.95;;
55758;SDS011;41678;52.126;20.664;2022-12-01T03:07:38;17.88;;;8.95;;
55758;SDS011;41678;52.126;20.664;2022-12-01T03:18:58;20.85;;;9.82;;
55758;SDS011;41678;52.126;20.664;2022-12-01T03:24:23;23.20;;;9.95;;
55758;SDS011;41678;52.126;20.664;2022-12-01T03:29:48;26.38;;;10.45;;
55758;SDS011;41678;52.126;20.664;2022-12-01T03:35:34;19.15;;;8.43;;
55758;SDS011;41678;52.126;20.664;2022-12-01T03:41:06;27.52;;;8.90;;
55758;SDS011;41678;52.126;20.664;2022-12-01T03:46:38;25.92;;;10.00;;
55758;SDS011;41678;52.126;20.664;2022-12-01T03:57:45;22.90;;;8.98;;
55758;SDS011;41678;52.126;20.664;2022-12-01T04:03:15;24.60;;;10.35;;
55758;SDS011;41678;52.126;20.664;2022-12-01T04:08:37;23.02;;;10.18;;
55758;SDS011;41678;52.126;20.664;2022-12-01T04:13:56;26.55;;;12.00;;
55758;SDS011;41678;52.126;20.664;2022-12-01T04:19:16;19.05;;;9.13;;
55758;SDS011;41678;52.126;20.664;2022-12-01T04:24:36;24.13;;;11.25;;
55758;SDS011;41678;52.126;20.664;2022-12-01T04:29:55;23.75;;;9.65;;
55758;SDS011;41678;52.126;20.664;2022-12-01T04:35:15;21.52;;;9.57;;
55758;SDS011;41678;52.126;20.664;2022-12-01T04:40:36;19.50;;;9.38;;
55758;SDS011;41678;52.126;20.664;2022-12-01T04:45:56;21.70;;;9.32;;
55758;SDS011;41678;52.126;20.664;2022-12-01T04:51:15;22.63;;;10.85;;
55758;SDS011;41678;52.126;20.664;2022-12-01T04:56:35;23.13;;;11.07;;
55758;SDS011;41678;52.126;20.664;2022-12-01T05:01:55;21.83;;;11.05;;
55758;SDS011;41678;52.126;20.664;2022-12-01T05:07:15;24.48;;;11.65;;
55758;SDS011;41678;52.126;20.664;2022-12-01T05:12:35;25.20;;;10.88;;
55758;SDS011;41678;52.126;20.664;2022-12-01T05:17:56;26.58;;;10.68;;
55758;SDS011;41678;52.126;20.664;2022-12-01T05:23:15;24.42;;;11.20;;
55758;SDS011;41678;52.126;20.664;2022-12-01T05:28:35;23.85;;;10.90;;
55758;SDS011;41678;52.126;20.664;2022-12-01T05:33:55;20.58;;;10.32;;
55758;SDS011;41678;52.126;20.664;2022-12-01T05:39:15;20.80;;;9.68;;
55758;SDS011;41678;52.126;20.664;2022-12-01T05:44:35;23.40;;;10.98;;
55758;SDS011;41678;52.126;20.664;2022-12-01T05:49:54;24.45;;;10.95;;
55758;SDS011;41678;52.126;20.664;2022-12-01T05:55:13;25.85;;;11.07;;
55758;SDS011;41678;52.126;20.664;2022-12-01T06:00:33;27.33;;;10.68;;
55758;SDS011;41678;52.126;20.664;2022-12-01T06:05:54;24.10;;;11.27;;
55758;SDS011;41678;52.126;20.664;2022-12-01T06:11:13;28.40;;;13.15;;
55758;SDS011;41678;52.126;20.664;2022-12-01T06:16:33;24.27;;;11.95;;
55758;SDS011;41678;52.126;20.664;2022-12-01T06:21:52;21.63;;;10.18;;
55758;SDS011;41678;52.126;20.664;2022-12-01T06:27:12;27.35;;;12.98;;
55758;SDS011;41678;52.126;20.664;2022-12-01T06:32:32;29.90;;;11.73;;
55758;SDS011;41678;52.126;20.664;2022-12-01T06:37:52;33.30;;;11.45;;
55758;SDS011;41678;52.126;20.664;2022-12-01T06:43:15;31.27;;;15.50;;
55758;SDS011;41678;52.126;20.664;2022-12-01T06:48:34;29.45;;;14.98;;
55758;SDS011;41678;52.126;20.664;2022-12-01T06:53:54;20.92;;;9.40;;
55758;SDS011;41678;52.126;20.664;2022-12-01T06:59:14;27.25;;;11.77;;
55758;SDS011;41678;52.126;20.664;2022-12-01T07:04:34;27.08;;;11.23;;
55758;SDS011;41678;52.126;20.664;2022-12-01T07:09:53;25.33;;;10.90;;
55758;SDS011;41678;52.126;20.664;2022-12-01T07:15:13;38.83;;;14.27;;
55758;SDS011;41678;52.126;20.664;2022-12-01T07:20:32;29.13;;;13.55;;
55758;SDS011;41678;52.126;20.664;2022-12-01T07:26:03;39.13;;;18.85;;
55758;SDS011;41678;52.126;20.664;2022-12-01T07:31:24;29.02;;;12.95;;
55758;SDS011;41678;52.126;20.664;2022-12-01T07:36:43;25.08;;;11.70;;
55758;SDS011;41678;52.126;20.664;2022-12-01T07:42:03;20.85;;;10.63;;
55758;SDS011;41678;52.126;20.664;2022-12-01T07:47:23;23.67;;;10.50;;
55758;SDS011;41678;52.126;20.664;2022-12-01T07:52:43;30.65;;;11.77;;
55758;SDS011;41678;52.126;20.664;2022-12-01T07:58:03;23.10;;;10.60;;
55758;SDS011;41678;52.126;20.664;2022-12-01T08:03:22;25.90;;;12.30;;
55758;SDS011;41678;52.126;20.664;2022-12-01T08:08:42;25.35;;;11.80;;
55758;SDS011;41678;52.126;20.664;2022-12-01T08:14:02;24.15;;;11.55;;
55758;SDS011;41678;52.126;20.664;2022-12-01T08:19:21;33.47;;;13.18;;
55758;SDS011;41678;52.126;20.664;2022-12-01T08:24:41;31.67;;;13.05;;
55758;SDS011;41678;52.126;20.664;2022-12-01T08:30:01;24.42;;;11.07;;
55758;SDS011;41678;52.126;20.664;2022-12-01T08:35:21;22.70;;;10.93;;
55758;SDS011;41678;52.126;20.664;2022-12-01T08:40:41;30.77;;;11.95;;
55758;SDS011;41678;52.126;20.664;2022-12-01T08:46:00;20.92;;;10.95;;
55758;SDS011;41678;52.126;20.664;2022-12-01T08:51:20;22.77;;;11.98;;
55758;SDS011;41678;52.126;20.664;2022-12-01T08:56:40;19.92;;;9.25;;
55758;SDS011;41678;52.126;20.664;2022-12-01T09:02:01;23.20;;;10.55;;
55758;SDS011;41678;52.126;20.664;2022-12-01T09:07:21;26.83;;;11.30;;
55758;SDS011;41678;52.126;20.664;2022-12-01T09:12:41;30.42;;;13.23;;
55758;SDS011;41678;52.126;20.664;2022-12-01T09:18:00;24.00;;;11.30;;
55758;SDS011;41678;52.126;20.664;2022-12-01T09:23:20;28.42;;;13.90;;
55758;SDS011;41678;52.126;20.664;2022-12-01T09:28:41;23.25;;;11.32;;
55758;SDS011;41678;52.126;20.664;2022-12-01T09:34:02;30.27;;;12.10;;
55758;SDS011;41678;52.126;20.664;2022-12-01T09:39:25;22.75;;;12.38;;
55758;SDS011;41678;52.126;20.664;2022-12-01T09:44:46;25.20;;;11.55;;
55758;SDS011;41678;52.126;20.664;2022-12-01T09:50:18;22.45;;;11.93;;
55758;SDS011;41678;52.126;20.664;2022-12-01T09:55:43;27.92;;;11.68;;
55758;SDS011;41678;52.126;20.664;2022-12-01T10:01:04;27.25;;;10.30;;
55758;SDS011;41678;52.126;20.664;2022-12-01T10:06:43;21.30;;;10.32;;
55758;SDS011;41678;52.126;20.664;2022-12-01T10:12:18;24.90;;;12.10;;
55758;SDS011;41678;52.126;20.664;2022-12-01T10:29:09;30.88;;;14.00;;
55758;SDS011;41678;52.126;20.664;2022-12-01T10:34:35;21.20;;;10.85;;
55758;SDS011;41678;52.126;20.664;2022-12-01T10:39:58;23.40;;;10.90;;
55758;SDS011;41678;52.126;20.664;2022-12-01T10:45:22;20.70;;;9.13;;
55758;SDS011;41678;52.126;20.664;2022-12-01T10:50:50;27.80;;;11.57;;
55758;SDS011;41678;52.126;20.664;2022-12-01T10:56:13;27.25;;;12.15;;
55758;SDS011;41678;52.126;20.664;2022-12-01T11:01:35;27.58;;;12.27;;
55758;SDS011;41678;52.126;20.664;2022-12-01T11:06:55;27.65;;;10.55;;
55758;SDS011;41678;52.126;20.664;2022-12-01T11:12:16;32.17;;;11.57;;
55758;SDS011;41678;52.126;20.664;2022-12-01T11:17:39;46.33;;;17.80;;
55758;SDS011;41678;52.126;20.664;2022-12-01T11:28:52;54.50;;;20.05;;
55758;SDS011;41678;52.126;20.664;2022-12-01T11:34:23;56.33;;;21.85;;
55758;SDS011;41678;52.126;20.664;2022-12-01T11:39:46;55.15;;;23.45;;
55758;SDS011;41678;52.126;20.664;2022-12-01T11:45:29;54.78;;;22.95;;
55758;SDS011;41678;52.126;20.664;2022-12-01T11:51:00;43.33;;;18.45;;
55758;SDS011;41678;52.126;20.664;2022-12-01T11:56:27;37.38;;;15.35;;
55758;SDS011;41678;52.126;20.664;2022-12-01T12:52:15;39.75;;;15.60;;
55758;SDS011;41678;52.126;20.664;2022-12-01T12:57:48;43.47;;;16.20;;
55758;SDS011;41678;52.126;20.664;2022-12-01T13:03:20;42.00;;;16.98;;
55758;SDS011;41678;52.126;20.664;2022-12-01T13:08:51;36.70;;;14.65;;
55758;SDS011;41678;52.126;20.664;2022-12-01T13:14:21;41.10;;;16.20;;
55758;SDS011;41678;52.126;20.664;2022-12-01T13:19:45;43.22;;;15.60;;
55758;SDS011;41678;52.126;20.664;2022-12-01T13:25:06;63.15;;;17.08;;
55758;SDS011;41678;52.126;20.664;2022-12-01T13:30:26;57.08;;;19.63;;
55758;SDS011;41678;52.126;20.664;2022-12-01T13:35:48;45.60;;;16.85;;
55758;SDS011;41678;52.126;20.664;2022-12-01T13:41:13;61.78;;;19.02;;
55758;SDS011;41678;52.126;20.664;2022-12-01T14:08:34;44.67;;;17.77;;
55758;SDS011;41678;52.126;20.664;2022-12-01T14:13:59;35.05;;;13.50;;
55758;SDS011;41678;52.126;20.664;2022-12-01T14:24:56;30.30;;;12.48;;
55758;SDS011;41678;52.126;20.664;2022-12-01T14:36:19;25.67;;;11.90;;
55758;SDS011;41678;52.126;20.664;2022-12-01T14:41:47;22.77;;;11.43;;
55758;SDS011;41678;52.126;20.664;2022-12-01T14:52:33;27.63;;;10.05;;
55758;SDS011;41678;52.126;20.664;2022-12-01T14:58:06;25.30;;;11.43;;
55758;SDS011;41678;52.126;20.664;2022-12-01T15:03:34;25.88;;;11.80;;
55758;SDS011;41678;52.126;20.664;2022-12-01T15:09:17;24.02;;;10.20;;
55758;SDS011;41678;52.126;20.664;2022-12-01T15:14:45;20.88;;;10.43;;
55758;SDS011;41678;52.126;20.664;2022-12-01T15:20:25;26.83;;;7.90;;
55758;SDS011;41678;52.126;20.664;2022-12-01T15:25:48;20.90;;;8.70;;
55758;SDS011;41678;52.126;20.664;2022-12-01T15:31:08;37.22;;;11.38;;
55758;SDS011;41678;52.126;20.664;2022-12-01T15:36:30;20.10;;;8.82;;
55758;SDS011;41678;52.126;20.664;2022-12-01T15:41:50;12.88;;;6.95;;
55758;SDS011;41678;52.126;20.664;2022-12-01T15:53:02;13.82;;;6.35;;
55758;SDS011;41678;52.126;20.664;2022-12-01T15:58:44;31.63;;;8.88;;
55758;SDS011;41678;52.126;20.664;2022-12-01T16:04:13;18.73;;;7.07;;
55758;SDS011;41678;52.126;20.664;2022-12-01T16:09:41;15.55;;;7.05;;
55758;SDS011;41678;52.126;20.664;2022-12-01T16:15:14;20.15;;;8.77;;
55758;SDS011;41678;52.126;20.664;2022-12-01T16:20:38;20.88;;;8.35;;
55758;SDS011;41678;52.126;20.664;2022-12-01T16:26:01;17.52;;;7.88;;
55758;SDS011;41678;52.126;20.664;2022-12-01T16:31:27;13.85;;;7.10;;
55758;SDS011;41678;52.126;20.664;2022-12-01T16:36:47;10.82;;;4.60;;
55758;SDS011;41678;52.126;20.664;2022-12-01T16:42:14;22.92;;;8.52;;
55758;SDS011;41678;52.126;20.664;2022-12-01T16:47:35;19.77;;;8.93;;
55758;SDS011;41678;52.126;20.664;2022-12-01T16:52:54;19.92;;;9.25;;
55758;SDS011;41678;52.126;20.664;2022-12-01T16:58:14;27.05;;;12.23;;
55758;SDS011;41678;52.126;20.664;2022-12-01T17:03:33;20.90;;;10.15;;
55758;SDS011;41678;52.126;20.664;2022-12-01T17:08:54;24.77;;;10.25;;
55758;SDS011;41678;52.126;20.664;2022-12-01T17:14:14;19.58;;;8.70;;
55758;SDS011;41678;52.126;20.664;2022-12-01T17:19:33;25.83;;;11.45;;
55758;SDS011;41678;52.126;20.664;2022-12-01T17:24:53;25.15;;;10.27;;
55758;SDS011;41678;52.126;20.664;2022-12-01T17:30:14;19.40;;;10.27;;
55758;SDS011;41678;52.126;20.664;2022-12-01T17:35:33;20.52;;;10.05;;
55758;SDS011;41678;52.126;20.664;2022-12-01T17:41:00;25.40;;;12.57;;
55758;SDS011;41678;52.126;20.664;2022-12-01T17:46:21;29.52;;;13.90;;
55758;SDS011;41678;52.126;20.664;2022-12-01T17:51:41;24.52;;;12.52;;
55758;SDS011;41678;52.126;20.664;2022-12-01T17:57:01;27.08;;;12.32;;
55758;SDS011;41678;52.126;20.664;2022-12-01T18:02:21;27.77;;;11.93;;
55758;SDS011;41678;52.126;20.664;2022-12-01T18:07:40;29.63;;;11.20;;
55758;SDS011;41678;52.126;20.664;2022-12-01T18:13:00;24.25;;;11.25;;
55758;SDS011;41678;52.126;20.664;2022-12-01T18:18:20;20.30;;;10.57;;
55758;SDS011;41678;52.126;20.664;2022-12-01T18:23:39;26.95;;;11.43;;
55758;SDS011;41678;52.126;20.664;2022-12-01T18:29:01;30.17;;;11.23;;
55758;SDS011;41678;52.126;20.664;2022-12-01T18:34:26;20.08;;;10.98;;
55758;SDS011;41678;52.126;20.664;2022-12-01T18:39:49;24.17;;;11.63;;
55758;SDS011;41678;52.126;20.664;2022-12-01T18:45:09;35.03;;;11.20;;
55758;SDS011;41678;52.126;20.664;2022-12-01T18:50:29;25.98;;;10.35;;
55758;SDS011;41678;52.126;20.664;2022-12-01T18:55:49;33.17;;;14.85;;
55758;SDS011;41678;52.126;20.664;2022-12-01T19:01:16;35.40;;;13.68;;
55758;SDS011;41678;52.126;20.664;2022-12-01T19:06:55;30.95;;;13.20;;
55758;SDS011;41678;52.126;20.664;2022-12-01T19:12:15;31.42;;;12.82;;
55758;SDS011;41678;52.126;20.664;2022-12-01T19:17:35;24.85;;;11.95;;
55758;SDS011;41678;52.126;20.664;2022-12-01T19:22:55;33.13;;;11.45;;
55758;SDS011;41678;52.126;20.664;2022-12-01T19:28:15;30.58;;;12.52;;
55758;SDS011;41678;52.126;20.664;2022-12-01T19:33:35;21.58;;;11.90;;
55758;SDS011;41678;52.126;20.664;2022-12-01T19:38:55;29.35;;;11.43;;
55758;SDS011;41678;52.126;20.664;2022-12-01T19:44:16;26.25;;;12.18;;
55758;SDS011;41678;52.126;20.664;2022-12-01T19:49:36;30.00;;;12.48;;
55758;SDS011;41678;52.126;20.664;2022-12-01T19:54:56;21.13;;;9.57;;
55758;SDS011;41678;52.126;20.664;2022-12-01T20:00:15;18.98;;;9.02;;
55758;SDS011;41678;52.126;20.664;2022-12-01T20:05:36;23.33;;;10.82;;
55758;SDS011;41678;52.126;20.664;2022-12-01T20:10:56;22.17;;;10.52;;
55758;SDS011;41678;52.126;20.664;2022-12-01T20:16:20;20.27;;;9.00;;
55758;SDS011;41678;52.126;20.664;2022-12-01T20:21:41;22.80;;;10.23;;
55758;SDS011;41678;52.126;20.664;2022-12-01T20:27:01;29.75;;;10.75;;
55758;SDS011;41678;52.126;20.664;2022-12-01T20:32:23;22.42;;;10.15;;
55758;SDS011;41678;52.126;20.664;2022-12-01T20:37:43;19.52;;;8.60;;
55758;SDS011;41678;52.126;20.664;2022-12-01T20:43:02;19.00;;;10.30;;
55758;SDS011;41678;52.126;20.664;2022-12-01T20:48:22;17.05;;;7.53;;
55758;SDS011;41678;52.126;20.664;2022-12-01T20:53:41;21.13;;;9.70;;
55758;SDS011;41678;52.126;20.664;2022-12-01T20:59:01;23.52;;;10.15;;
55758;SDS011;41678;52.126;20.664;2022-12-01T21:04:21;22.05;;;9.05;;
55758;SDS011;41678;52.126;20.664;2022-12-01T21:09:41;24.80;;;9.75;;
55758;SDS011;41678;52.126;20.664;2022-12-01T21:15:04;19.30;;;9.48;;
55758;SDS011;41678;52.126;20.664;2022-12-01T21:20:32;31.73;;;12.88;;
55758;SDS011;41678;52.126;20.664;2022-12-01T21:25:54;17.08;;;7.82;;
55758;SDS011;41678;52.126;20.664;2022-12-01T21:31:14;22.00;;;9.95;;
55758;SDS011;41678;52.126;20.664;2022-12-01T21:36:33;21.58;;;8.63;;
55758;SDS011;41678;52.126;20.664;2022-12-01T21:41:54;27.45;;;10.75;;
55758;SDS011;41678;52.126;20.664;2022-12-01T21:47:19;25.17;;;10.30;;
55758;SDS011;41678;52.126;20.664;2022-12-01T21:52:41;18.40;;;9.18;;
55758;SDS011;41678;52.126;20.664;2022-12-01T21:58:11;20.67;;;8.55;;
55758;SDS011;41678;52.126;20.664;2022-12-01T22:03:47;16.70;;;7.80;;
55758;SDS011;41678;52.126;20.664;2022-12-01T22:14:49;15.33;;;8.30;;
55758;SDS011;41678;52.126;20.664;2022-12-01T22:20:20;27.38;;;9.70;;
55758;SDS011;41678;52.126;20.664;2022-12-01T22:25:41;21.15;;;8.95;;
55758;SDS011;41678;52.126;20.664;2022-12-01T22:31:01;27.70;;;12.18;;
55758;SDS011;41678;52.126;20.664;2022-12-01T22:36:22;24.20;;;9.60;;
55758;SDS011;41678;52.126;20.664;2022-12-01T22:41:46;21.05;;;9.38;;
55758;SDS011;41678;52.126;20.664;2022-12-01T22:47:07;28.80;;;11.48;;
55758;SDS011;41678;52.126;20.664;2022-12-01T22:52:27;28.05;;;11.30;;
55758;SDS011;41678;52.126;20.664;2022-12-01T22:57:48;22.40;;;11.32;;
55758;SDS011;41678;52.126;20.664;2022-12-01T23:03:09;27.08;;;10.95;;
55758;SDS011;41678;52.126;20.664;2022-12-01T23:08:30;25.58;;;10.70;;
55758;SDS011;41678;52.126;20.664;2022-12-01T23:13:49;21.45;;;8.90;;
55758;SDS011;41678;52.126;20.664;2022-12-01T23:19:09;25.85;;;11.45;;
55758;SDS011;41678;52.126;20.664;2022-12-01T23:24:29;27.27;;;11.13;;
55758;SDS011;41678;52.126;20.664;2022-12-01T23:29:48;24.60;;;10.77;;
55758;SDS011;41678;52.126;20.664;2022-12-01T23:35:14;14.55;;;7.13;;
55758;SDS011;41678;52.126;20.664;2022-12-01T23:40:35;21.38;;;9.73;;
55758;SDS011;41678;52.126;20.664;2022-12-01T23:46:04;20.60;;;8.50;;
55758;SDS011;41678;52.126;20.664;2022-12-01T23:51:25;16.98;;;6.97;;
55758;SDS011;41678;52.126;20.664;2022-12-01T23:56:56;17.73;;;7.00;;
